sensor_id;sensor_type;location;lat;lon;timestamp;temperature;humidity
56374;DHT22;58212;47.034;7.376;2022-08-19T00:01:54;18.20;99.90
56374;DHT22;58212;47.034;7.376;2022-08-19T00:04:23;18.10;99.90
56374;DHT22;58212;47.034;7.376;2022-08-19T00:06:51;18.10;99.90
56374;DHT22;58212;47.034;7.376;2022-08-19T00:09:21;18.10;99.90
56374;DHT22;58212;47.034;7.376;2022-08-19T00:11:48;18.10;99.90
56374;DHT22;58212;47.034;7.376;2022-08-19T00:14:17;18.10;99.90
56374;DHT22;58212;47.034;7.376;2022-08-19T00:16:46;18.10;99.90
56374;DHT22;58212;47.034;7.376;2022-08-19T00:19:14;18.10;99.90
56374;DHT22;58212;47.034;7.376;2022-08-19T00:21:41;18.10;99.90
56374;DHT22;58212;47.034;7.376;2022-08-19T00:24:11;18.10;99.90
56374;DHT22;58212;47.034;7.376;2022-08-19T00:26:40;18.10;99.90
56374;DHT22;58212;47.034;7.376;2022-08-19T00:29:12;18.10;99.90
56374;DHT22;58212;47.034;7.376;2022-08-19T00:31:39;18.10;99.90
56374;DHT22;58212;47.034;7.376;2022-08-19T00:34:07;18.10;99.90
56374;DHT22;58212;47.034;7.376;2022-08-19T00:36:34;18.00;99.90
56374;DHT22;58212;47.034;7.376;2022-08-19T00:39:03;18.00;99.90
56374;DHT22;58212;47.034;7.376;2022-08-19T00:41:32;17.90;99.90
56374;DHT22;58212;47.034;7.376;2022-08-19T00:44:04;18.00;99.90
56374;DHT22;58212;47.034;7.376;2022-08-19T00:46:35;18.00;99.90
56374;DHT22;58212;47.034;7.376;2022-08-19T00:49:08;17.90;99.90
56374;DHT22;58212;47.034;7.376;2022-08-19T00:51:38;17.90;99.90
56374;DHT22;58212;47.034;7.376;2022-08-19T00:54:06;17.90;99.90
56374;DHT22;58212;47.034;7.376;2022-08-19T00:56:33;17.90;99.90
56374;DHT22;58212;47.034;7.376;2022-08-19T00:59:03;17.90;99.90
56374;DHT22;58212;47.034;7.376;2022-08-19T01:01:38;17.90;99.90
56374;DHT22;58212;47.034;7.376;2022-08-19T01:04:05;17.90;99.90
56374;DHT22;58212;47.034;7.376;2022-08-19T01:06:36;18.00;99.90
56374;DHT22;58212;47.034;7.376;2022-08-19T01:09:04;18.00;99.90
56374;DHT22;58212;47.034;7.376;2022-08-19T01:11:38;18.00;99.90
56374;DHT22;58212;47.034;7.376;2022-08-19T01:14:10;18.00;99.90
56374;DHT22;58212;47.034;7.376;2022-08-19T01:16:39;18.00;99.90
56374;DHT22;58212;47.034;7.376;2022-08-19T01:19:17;18.00;99.90
56374;DHT22;58212;47.034;7.376;2022-08-19T01:21:50;17.80;99.90
56374;DHT22;58212;47.034;7.376;2022-08-19T01:24:22;17.80;99.90
56374;DHT22;58212;47.034;7.376;2022-08-19T01:26:49;17.80;99.90
56374;DHT22;58212;47.034;7.376;2022-08-19T01:29:16;17.80;99.90
56374;DHT22;58212;47.034;7.376;2022-08-19T01:31:43;17.70;99.90
56374;DHT22;58212;47.034;7.376;2022-08-19T01:34:13;17.70;99.90
56374;DHT22;58212;47.034;7.376;2022-08-19T01:36:44;17.80;99.90
56374;DHT22;58212;47.034;7.376;2022-08-19T01:39:14;17.70;99.90
56374;DHT22;58212;47.034;7.376;2022-08-19T01:41:45;17.80;99.90
56374;DHT22;58212;47.034;7.376;2022-08-19T01:44:12;17.80;99.90
56374;DHT22;58212;47.034;7.376;2022-08-19T01:46:40;17.80;99.90
56374;DHT22;58212;47.034;7.376;2022-08-19T01:49:07;17.70;99.90
56374;DHT22;58212;47.034;7.376;2022-08-19T01:51:35;17.80;99.90
56374;DHT22;58212;47.034;7.376;2022-08-19T01:54:02;17.80;99.90
56374;DHT22;58212;47.034;7.376;2022-08-19T01:56:29;17.70;99.90
56374;DHT22;58212;47.034;7.376;2022-08-19T01:59:00;17.70;99.90
56374;DHT22;58212;47.034;7.376;2022-08-19T02:01:28;17.70;99.90
56374;DHT22;58212;47.034;7.376;2022-08-19T02:03:58;17.80;99.90
56374;DHT22;58212;47.034;7.376;2022-08-19T02:06:29;17.70;99.90
56374;DHT22;58212;47.034;7.376;2022-08-19T02:08:56;17.70;99.90
56374;DHT22;58212;47.034;7.376;2022-08-19T02:11:26;17.70;99.90
56374;DHT22;58212;47.034;7.376;2022-08-19T02:13:54;17.60;99.90
56374;DHT22;58212;47.034;7.376;2022-08-19T02:16:25;17.50;99.90
56374;DHT22;58212;47.034;7.376;2022-08-19T02:18:53;17.50;99.90
56374;DHT22;58212;47.034;7.376;2022-08-19T02:21:23;17.40;99.90
56374;DHT22;58212;47.034;7.376;2022-08-19T02:23:50;17.50;99.90
56374;DHT22;58212;47.034;7.376;2022-08-19T02:26:18;17.50;99.90
56374;DHT22;58212;47.034;7.376;2022-08-19T02:28:45;17.60;99.90
56374;DHT22;58212;47.034;7.376;2022-08-19T02:31:15;17.60;99.90
56374;DHT22;58212;47.034;7.376;2022-08-19T02:33:45;17.60;99.90
56374;DHT22;58212;47.034;7.376;2022-08-19T02:36:13;17.50;99.90
56374;DHT22;58212;47.034;7.376;2022-08-19T02:38:41;17.60;99.90
56374;DHT22;58212;47.034;7.376;2022-08-19T02:41:12;17.60;99.90
56374;DHT22;58212;47.034;7.376;2022-08-19T02:43:40;17.50;99.90
56374;DHT22;58212;47.034;7.376;2022-08-19T02:46:14;17.50;99.90
56374;DHT22;58212;47.034;7.376;2022-08-19T02:48:45;17.50;99.90
56374;DHT22;58212;47.034;7.376;2022-08-19T02:51:19;17.50;99.90
56374;DHT22;58212;47.034;7.376;2022-08-19T02:53:49;17.40;99.90
56374;DHT22;58212;47.034;7.376;2022-08-19T02:56:16;17.40;99.90
56374;DHT22;58212;47.034;7.376;2022-08-19T02:58:44;17.40;99.90
56374;DHT22;58212;47.034;7.376;2022-08-19T03:01:19;17.40;99.90
56374;DHT22;58212;47.034;7.376;2022-08-19T03:03:48;17.50;99.90
56374;DHT22;58212;47.034;7.376;2022-08-19T03:06:19;17.50;99.90
56374;DHT22;58212;47.034;7.376;2022-08-19T03:08:47;17.50;99.90
56374;DHT22;58212;47.034;7.376;2022-08-19T03:11:17;17.50;99.90
56374;DHT22;58212;47.034;7.376;2022-08-19T03:13:44;17.40;99.90
56374;DHT22;58212;47.034;7.376;2022-08-19T03:16:12;17.50;99.90
56374;DHT22;58212;47.034;7.376;2022-08-19T03:18:39;17.50;99.90
56374;DHT22;58212;47.034;7.376;2022-08-19T03:21:14;17.50;99.90
56374;DHT22;58212;47.034;7.376;2022-08-19T03:23:44;17.50;99.90
56374;DHT22;58212;47.034;7.376;2022-08-19T03:26:12;17.50;99.90
56374;DHT22;58212;47.034;7.376;2022-08-19T03:28:40;17.40;99.90
56374;DHT22;58212;47.034;7.376;2022-08-19T03:31:11;17.50;99.90
56374;DHT22;58212;47.034;7.376;2022-08-19T03:33:38;17.40;99.90
56374;DHT22;58212;47.034;7.376;2022-08-19T03:36:08;17.30;99.90
56374;DHT22;58212;47.034;7.376;2022-08-19T03:38:45;17.30;99.90
56374;DHT22;58212;47.034;7.376;2022-08-19T03:41:17;17.20;99.90
56374;DHT22;58212;47.034;7.376;2022-08-19T03:43:46;17.30;99.90
56374;DHT22;58212;47.034;7.376;2022-08-19T03:46:16;17.30;99.90
56374;DHT22;58212;47.034;7.376;2022-08-19T03:48:43;17.30;99.90
56374;DHT22;58212;47.034;7.376;2022-08-19T03:51:16;17.30;99.90
56374;DHT22;58212;47.034;7.376;2022-08-19T03:53:47;17.40;99.90
56374;DHT22;58212;47.034;7.376;2022-08-19T03:56:14;17.40;99.90
56374;DHT22;58212;47.034;7.376;2022-08-19T03:58:42;17.40;99.90
56374;DHT22;58212;47.034;7.376;2022-08-19T04:01:16;17.40;99.90
56374;DHT22;58212;47.034;7.376;2022-08-19T04:03:46;17.40;99.90
56374;DHT22;58212;47.034;7.376;2022-08-19T04:06:15;17.40;99.90
56374;DHT22;58212;47.034;7.376;2022-08-19T04:08:47;17.40;99.90
56374;DHT22;58212;47.034;7.376;2022-08-19T04:11:18;17.40;99.90
56374;DHT22;58212;47.034;7.376;2022-08-19T04:13:47;17.50;99.90
56374;DHT22;58212;47.034;7.376;2022-08-19T04:16:14;17.50;99.90
56374;DHT22;58212;47.034;7.376;2022-08-19T04:18:42;17.60;99.90
56374;DHT22;58212;47.034;7.376;2022-08-19T04:21:16;17.60;99.90
56374;DHT22;58212;47.034;7.376;2022-08-19T04:23:43;17.70;99.90
56374;DHT22;58212;47.034;7.376;2022-08-19T04:26:14;17.60;99.90
56374;DHT22;58212;47.034;7.376;2022-08-19T04:28:42;17.60;99.90
56374;DHT22;58212;47.034;7.376;2022-08-19T04:31:13;17.50;99.90
56374;DHT22;58212;47.034;7.376;2022-08-19T04:33:41;17.50;99.90
56374;DHT22;58212;47.034;7.376;2022-08-19T04:36:15;17.40;99.90
56374;DHT22;58212;47.034;7.376;2022-08-19T04:38:45;17.40;99.90
56374;DHT22;58212;47.034;7.376;2022-08-19T04:41:14;17.40;99.90
56374;DHT22;58212;47.034;7.376;2022-08-19T04:43:59;17.30;99.90
56374;DHT22;58212;47.034;7.376;2022-08-19T04:46:30;17.30;99.90
56374;DHT22;58212;47.034;7.376;2022-08-19T04:48:57;17.30;99.90
56374;DHT22;58212;47.034;7.376;2022-08-19T04:51:27;17.40;99.90
56374;DHT22;58212;47.034;7.376;2022-08-19T04:53:56;17.40;99.90
56374;DHT22;58212;47.034;7.376;2022-08-19T04:56:30;17.40;99.90
56374;DHT22;58212;47.034;7.376;2022-08-19T04:58:59;17.30;99.90
56374;DHT22;58212;47.034;7.376;2022-08-19T05:01:29;17.40;99.90
56374;DHT22;58212;47.034;7.376;2022-08-19T05:03:58;17.40;99.90
56374;DHT22;58212;47.034;7.376;2022-08-19T05:06:26;17.30;99.90
56374;DHT22;58212;47.034;7.376;2022-08-19T05:08:54;17.30;99.90
56374;DHT22;58212;47.034;7.376;2022-08-19T05:11:29;17.20;99.90
56374;DHT22;58212;47.034;7.376;2022-08-19T05:13:59;17.20;99.90
56374;DHT22;58212;47.034;7.376;2022-08-19T05:16:28;17.30;99.90
56374;DHT22;58212;47.034;7.376;2022-08-19T05:18:58;17.20;99.90
56374;DHT22;58212;47.034;7.376;2022-08-19T05:21:43;17.30;99.90
56374;DHT22;58212;47.034;7.376;2022-08-19T05:24:28;17.20;99.90
56374;DHT22;58212;47.034;7.376;2022-08-19T05:26:57;17.20;99.90
56374;DHT22;58212;47.034;7.376;2022-08-19T05:29:27;17.20;99.90
56374;DHT22;58212;47.034;7.376;2022-08-19T05:31:55;17.20;99.90
56374;DHT22;58212;47.034;7.376;2022-08-19T05:34:24;17.20;99.90
56374;DHT22;58212;47.034;7.376;2022-08-19T05:36:56;17.20;99.90
56374;DHT22;58212;47.034;7.376;2022-08-19T05:39:37;17.20;99.90
56374;DHT22;58212;47.034;7.376;2022-08-19T05:42:09;17.20;99.90
56374;DHT22;58212;47.034;7.376;2022-08-19T05:44:42;17.20;99.90
56374;DHT22;58212;47.034;7.376;2022-08-19T05:47:10;17.30;99.90
56374;DHT22;58212;47.034;7.376;2022-08-19T05:49:38;17.20;99.90
56374;DHT22;58212;47.034;7.376;2022-08-19T05:52:07;17.30;99.90
56374;DHT22;58212;47.034;7.376;2022-08-19T05:54:37;17.30;99.90
56374;DHT22;58212;47.034;7.376;2022-08-19T05:57:08;17.30;99.90
56374;DHT22;58212;47.034;7.376;2022-08-19T05:59:35;17.30;99.90
56374;DHT22;58212;47.034;7.376;2022-08-19T06:02:03;17.20;99.90
56374;DHT22;58212;47.034;7.376;2022-08-19T06:04:33;17.20;99.90
56374;DHT22;58212;47.034;7.376;2022-08-19T06:07:03;17.30;99.90
56374;DHT22;58212;47.034;7.376;2022-08-19T06:09:30;17.20;99.90
56374;DHT22;58212;47.034;7.376;2022-08-19T06:12:00;17.10;99.90
56374;DHT22;58212;47.034;7.376;2022-08-19T06:14:32;17.20;99.90
56374;DHT22;58212;47.034;7.376;2022-08-19T06:17:00;17.30;99.90
56374;DHT22;58212;47.034;7.376;2022-08-19T06:19:29;17.40;99.90
56374;DHT22;58212;47.034;7.376;2022-08-19T06:21:59;17.60;99.90
56374;DHT22;58212;47.034;7.376;2022-08-19T06:24:28;17.60;99.90
56374;DHT22;58212;47.034;7.376;2022-08-19T06:26:59;17.50;99.90
56374;DHT22;58212;47.034;7.376;2022-08-19T06:29:28;17.40;99.90
56374;DHT22;58212;47.034;7.376;2022-08-19T06:31:58;17.60;99.90
56374;DHT22;58212;47.034;7.376;2022-08-19T06:34:30;17.70;99.90
56374;DHT22;58212;47.034;7.376;2022-08-19T06:36:59;17.60;99.90
56374;DHT22;58212;47.034;7.376;2022-08-19T06:39:30;17.70;99.90
56374;DHT22;58212;47.034;7.376;2022-08-19T06:42:00;17.90;99.90
56374;DHT22;58212;47.034;7.376;2022-08-19T06:44:30;17.80;99.90
56374;DHT22;58212;47.034;7.376;2022-08-19T06:47:03;17.80;99.90
56374;DHT22;58212;47.034;7.376;2022-08-19T06:49:31;17.80;99.90
56374;DHT22;58212;47.034;7.376;2022-08-19T06:51:58;17.90;99.90
56374;DHT22;58212;47.034;7.376;2022-08-19T06:54:28;17.80;99.90
56374;DHT22;58212;47.034;7.376;2022-08-19T06:56:59;17.80;99.90
56374;DHT22;58212;47.034;7.376;2022-08-19T06:59:28;17.70;99.90
56374;DHT22;58212;47.034;7.376;2022-08-19T07:02:00;17.60;99.90
56374;DHT22;58212;47.034;7.376;2022-08-19T07:04:30;17.60;99.90
56374;DHT22;58212;47.034;7.376;2022-08-19T07:06:59;17.80;99.90
56374;DHT22;58212;47.034;7.376;2022-08-19T07:09:27;18.00;99.90
56374;DHT22;58212;47.034;7.376;2022-08-19T07:12:00;18.10;99.90
56374;DHT22;58212;47.034;7.376;2022-08-19T07:14:27;18.00;99.90
56374;DHT22;58212;47.034;7.376;2022-08-19T07:16:57;17.90;99.90
56374;DHT22;58212;47.034;7.376;2022-08-19T07:19:28;17.80;99.90
56374;DHT22;58212;47.034;7.376;2022-08-19T07:21:56;17.70;99.90
56374;DHT22;58212;47.034;7.376;2022-08-19T07:24:24;17.60;99.90
56374;DHT22;58212;47.034;7.376;2022-08-19T07:26:54;17.70;99.90
56374;DHT22;58212;47.034;7.376;2022-08-19T07:29:24;17.80;99.90
56374;DHT22;58212;47.034;7.376;2022-08-19T07:31:52;17.60;99.90
56374;DHT22;58212;47.034;7.376;2022-08-19T07:34:22;17.70;99.90
56374;DHT22;58212;47.034;7.376;2022-08-19T07:36:55;17.70;99.90
56374;DHT22;58212;47.034;7.376;2022-08-19T07:39:24;17.80;99.90
56374;DHT22;58212;47.034;7.376;2022-08-19T07:41:52;17.80;99.90
56374;DHT22;58212;47.034;7.376;2022-08-19T07:44:20;17.80;99.90
56374;DHT22;58212;47.034;7.376;2022-08-19T07:46:51;17.90;99.90
56374;DHT22;58212;47.034;7.376;2022-08-19T07:49:19;17.90;99.90
56374;DHT22;58212;47.034;7.376;2022-08-19T07:51:49;17.80;99.90
56374;DHT22;58212;47.034;7.376;2022-08-19T07:54:19;17.70;99.90
56374;DHT22;58212;47.034;7.376;2022-08-19T07:56:47;17.60;99.90
56374;DHT22;58212;47.034;7.376;2022-08-19T07:59:18;17.70;99.90
56374;DHT22;58212;47.034;7.376;2022-08-19T08:01:45;17.80;99.90
56374;DHT22;58212;47.034;7.376;2022-08-19T08:04:13;17.80;99.90
56374;DHT22;58212;47.034;7.376;2022-08-19T08:06:58;17.90;99.90
56374;DHT22;58212;47.034;7.376;2022-08-19T08:09:44;18.00;99.90
56374;DHT22;58212;47.034;7.376;2022-08-19T08:12:13;18.00;99.90
56374;DHT22;58212;47.034;7.376;2022-08-19T08:14:43;18.00;99.90
56374;DHT22;58212;47.034;7.376;2022-08-19T08:17:11;18.10;99.90
56374;DHT22;58212;47.034;7.376;2022-08-19T08:19:39;18.20;99.90
56374;DHT22;58212;47.034;7.376;2022-08-19T08:22:08;18.20;99.90
56374;DHT22;58212;47.034;7.376;2022-08-19T08:25:00;18.20;99.90
56374;DHT22;58212;47.034;7.376;2022-08-19T08:27:28;18.20;99.90
56374;DHT22;58212;47.034;7.376;2022-08-19T08:29:59;18.10;99.90
56374;DHT22;58212;47.034;7.376;2022-08-19T08:32:28;18.00;99.90
56374;DHT22;58212;47.034;7.376;2022-08-19T08:34:56;18.10;99.90
56374;DHT22;58212;47.034;7.376;2022-08-19T08:37:23;18.30;99.90
56374;DHT22;58212;47.034;7.376;2022-08-19T08:39:52;18.30;99.90
56374;DHT22;58212;47.034;7.376;2022-08-19T08:42:29;18.10;99.90
56374;DHT22;58212;47.034;7.376;2022-08-19T08:45:00;18.30;99.90
56374;DHT22;58212;47.034;7.376;2022-08-19T08:47:31;18.30;99.90
56374;DHT22;58212;47.034;7.376;2022-08-19T08:50:03;18.40;99.90
56374;DHT22;58212;47.034;7.376;2022-08-19T08:52:34;18.50;99.90
56374;DHT22;58212;47.034;7.376;2022-08-19T08:55:08;18.60;99.90
56374;DHT22;58212;47.034;7.376;2022-08-19T08:57:48;18.70;99.90
56374;DHT22;58212;47.034;7.376;2022-08-19T09:00:20;18.60;99.90
56374;DHT22;58212;47.034;7.376;2022-08-19T09:02:48;18.60;99.90
56374;DHT22;58212;47.034;7.376;2022-08-19T09:05:17;18.60;99.90
56374;DHT22;58212;47.034;7.376;2022-08-19T09:07:53;18.50;99.90
56374;DHT22;58212;47.034;7.376;2022-08-19T09:10:29;18.60;99.90
56374;DHT22;58212;47.034;7.376;2022-08-19T09:13:03;18.70;99.90
56374;DHT22;58212;47.034;7.376;2022-08-19T09:15:38;18.80;99.90
56374;DHT22;58212;47.034;7.376;2022-08-19T09:18:08;18.70;99.90
56374;DHT22;58212;47.034;7.376;2022-08-19T09:20:36;18.60;99.90
56374;DHT22;58212;47.034;7.376;2022-08-19T09:23:03;18.60;99.90
56374;DHT22;58212;47.034;7.376;2022-08-19T09:25:31;18.60;99.90
56374;DHT22;58212;47.034;7.376;2022-08-19T09:28:01;18.60;99.90
56374;DHT22;58212;47.034;7.376;2022-08-19T09:30:32;18.60;99.90
56374;DHT22;58212;47.034;7.376;2022-08-19T09:33:02;18.50;99.90
56374;DHT22;58212;47.034;7.376;2022-08-19T09:35:30;18.60;99.90
56374;DHT22;58212;47.034;7.376;2022-08-19T09:37:58;18.70;99.90
56374;DHT22;58212;47.034;7.376;2022-08-19T09:40:27;18.90;99.90
56374;DHT22;58212;47.034;7.376;2022-08-19T09:42:54;19.00;99.90
56374;DHT22;58212;47.034;7.376;2022-08-19T09:45:26;19.10;99.90
56374;DHT22;58212;47.034;7.376;2022-08-19T09:47:53;19.50;99.90
56374;DHT22;58212;47.034;7.376;2022-08-19T09:50:22;19.50;99.90
56374;DHT22;58212;47.034;7.376;2022-08-19T09:52:50;19.60;99.90
56374;DHT22;58212;47.034;7.376;2022-08-19T09:55:19;19.50;99.90
56374;DHT22;58212;47.034;7.376;2022-08-19T09:57:46;19.70;99.90
56374;DHT22;58212;47.034;7.376;2022-08-19T10:00:15;19.80;99.90
56374;DHT22;58212;47.034;7.376;2022-08-19T10:02:44;19.70;99.90
56374;DHT22;58212;47.034;7.376;2022-08-19T10:05:18;19.70;99.90
56374;DHT22;58212;47.034;7.376;2022-08-19T10:08:03;19.90;99.90
56374;DHT22;58212;47.034;7.376;2022-08-19T10:10:35;19.80;99.90
56374;DHT22;58212;47.034;7.376;2022-08-19T10:13:04;19.80;99.90
56374;DHT22;58212;47.034;7.376;2022-08-19T10:15:31;19.70;99.90
56374;DHT22;58212;47.034;7.376;2022-08-19T10:18:02;19.80;99.90
56374;DHT22;58212;47.034;7.376;2022-08-19T10:20:29;19.80;99.90
56374;DHT22;58212;47.034;7.376;2022-08-19T10:22:56;19.90;99.90
56374;DHT22;58212;47.034;7.376;2022-08-19T10:25:25;19.80;99.90
56374;DHT22;58212;47.034;7.376;2022-08-19T10:27:52;19.80;99.90
56374;DHT22;58212;47.034;7.376;2022-08-19T10:30:20;19.80;99.90
56374;DHT22;58212;47.034;7.376;2022-08-19T10:32:47;19.80;99.90
56374;DHT22;58212;47.034;7.376;2022-08-19T10:35:16;19.80;99.90
56374;DHT22;58212;47.034;7.376;2022-08-19T10:37:43;19.80;99.90
56374;DHT22;58212;47.034;7.376;2022-08-19T10:40:10;19.80;99.90
56374;DHT22;58212;47.034;7.376;2022-08-19T10:42:40;19.90;99.90
56374;DHT22;58212;47.034;7.376;2022-08-19T10:45:08;20.00;99.90
56374;DHT22;58212;47.034;7.376;2022-08-19T10:47:37;20.10;99.90
56374;DHT22;58212;47.034;7.376;2022-08-19T10:50:07;20.20;99.90
56374;DHT22;58212;47.034;7.376;2022-08-19T10:52:52;20.50;99.90
56374;DHT22;58212;47.034;7.376;2022-08-19T10:55:21;20.60;99.90
56374;DHT22;58212;47.034;7.376;2022-08-19T10:58:11;20.70;99.90
56374;DHT22;58212;47.034;7.376;2022-08-19T11:00:39;20.80;99.90
56374;DHT22;58212;47.034;7.376;2022-08-19T11:03:07;20.70;99.90
56374;DHT22;58212;47.034;7.376;2022-08-19T11:05:37;20.60;99.90
56374;DHT22;58212;47.034;7.376;2022-08-19T11:08:10;20.50;99.90
56374;DHT22;58212;47.034;7.376;2022-08-19T11:10:41;20.50;99.90
56374;DHT22;58212;47.034;7.376;2022-08-19T11:13:09;20.40;99.90
56374;DHT22;58212;47.034;7.376;2022-08-19T11:15:36;20.30;99.90
56374;DHT22;58212;47.034;7.376;2022-08-19T11:18:04;20.40;99.90
56374;DHT22;58212;47.034;7.376;2022-08-19T11:20:31;20.40;99.90
56374;DHT22;58212;47.034;7.376;2022-08-19T11:23:01;20.30;99.90
56374;DHT22;58212;47.034;7.376;2022-08-19T11:25:29;20.10;99.90
56374;DHT22;58212;47.034;7.376;2022-08-19T11:27:56;20.00;99.90
56374;DHT22;58212;47.034;7.376;2022-08-19T11:30:24;19.90;99.90
56374;DHT22;58212;47.034;7.376;2022-08-19T11:33:00;20.00;99.90
56374;DHT22;58212;47.034;7.376;2022-08-19T11:35:28;19.90;99.90
56374;DHT22;58212;47.034;7.376;2022-08-19T11:37:57;19.90;99.90
56374;DHT22;58212;47.034;7.376;2022-08-19T11:40:30;19.90;99.90
56374;DHT22;58212;47.034;7.376;2022-08-19T11:42:58;19.80;99.90
56374;DHT22;58212;47.034;7.376;2022-08-19T11:45:26;19.80;99.90
56374;DHT22;58212;47.034;7.376;2022-08-19T11:47:55;19.90;99.90
56374;DHT22;58212;47.034;7.376;2022-08-19T11:50:23;20.10;99.90
56374;DHT22;58212;47.034;7.376;2022-08-19T11:52:50;20.30;99.90
56374;DHT22;58212;47.034;7.376;2022-08-19T11:55:20;20.50;99.90
56374;DHT22;58212;47.034;7.376;2022-08-19T11:57:48;20.40;99.90
56374;DHT22;58212;47.034;7.376;2022-08-19T12:00:16;20.40;99.90
56374;DHT22;58212;47.034;7.376;2022-08-19T12:02:43;20.30;99.90
56374;DHT22;58212;47.034;7.376;2022-08-19T12:05:10;20.40;99.90
56374;DHT22;58212;47.034;7.376;2022-08-19T12:07:37;20.40;99.90
56374;DHT22;58212;47.034;7.376;2022-08-19T12:10:05;20.60;99.90
56374;DHT22;58212;47.034;7.376;2022-08-19T12:12:32;20.60;99.90
56374;DHT22;58212;47.034;7.376;2022-08-19T12:15:01;20.50;99.90
56374;DHT22;58212;47.034;7.376;2022-08-19T12:17:29;20.40;99.90
56374;DHT22;58212;47.034;7.376;2022-08-19T12:19:56;20.30;99.90
56374;DHT22;58212;47.034;7.376;2022-08-19T12:22:25;20.60;99.90
56374;DHT22;58212;47.034;7.376;2022-08-19T12:24:55;20.70;99.90
56374;DHT22;58212;47.034;7.376;2022-08-19T12:27:24;20.50;99.90
56374;DHT22;58212;47.034;7.376;2022-08-19T12:29:55;20.60;99.90
56374;DHT22;58212;47.034;7.376;2022-08-19T12:32:24;20.70;99.90
56374;DHT22;58212;47.034;7.376;2022-08-19T12:34:52;20.90;99.90
56374;DHT22;58212;47.034;7.376;2022-08-19T12:37:20;20.80;99.90
56374;DHT22;58212;47.034;7.376;2022-08-19T12:39:47;20.80;99.90
56374;DHT22;58212;47.034;7.376;2022-08-19T12:42:14;20.70;99.90
56374;DHT22;58212;47.034;7.376;2022-08-19T12:44:43;20.70;99.90
56374;DHT22;58212;47.034;7.376;2022-08-19T12:47:13;20.70;99.90
56374;DHT22;58212;47.034;7.376;2022-08-19T12:49:42;20.70;99.90
56374;DHT22;58212;47.034;7.376;2022-08-19T12:52:10;20.80;99.90
56374;DHT22;58212;47.034;7.376;2022-08-19T12:54:40;20.80;99.90
56374;DHT22;58212;47.034;7.376;2022-08-19T12:57:09;20.80;99.90
56374;DHT22;58212;47.034;7.376;2022-08-19T12:59:38;20.80;99.90
56374;DHT22;58212;47.034;7.376;2022-08-19T13:02:06;20.60;99.90
56374;DHT22;58212;47.034;7.376;2022-08-19T13:04:34;20.60;99.90
56374;DHT22;58212;47.034;7.376;2022-08-19T13:07:07;20.60;99.90
56374;DHT22;58212;47.034;7.376;2022-08-19T13:09:35;20.60;99.90
56374;DHT22;58212;47.034;7.376;2022-08-19T13:12:03;20.70;99.90
56374;DHT22;58212;47.034;7.376;2022-08-19T13:14:33;20.90;99.90
56374;DHT22;58212;47.034;7.376;2022-08-19T13:17:03;20.70;99.90
56374;DHT22;58212;47.034;7.376;2022-08-19T13:19:30;20.70;99.90
56374;DHT22;58212;47.034;7.376;2022-08-19T13:21:59;20.80;99.90
56374;DHT22;58212;47.034;7.376;2022-08-19T13:24:28;20.70;99.90
56374;DHT22;58212;47.034;7.376;2022-08-19T13:26:55;20.60;99.90
56374;DHT22;58212;47.034;7.376;2022-08-19T13:29:22;20.90;99.90
56374;DHT22;58212;47.034;7.376;2022-08-19T13:32:07;21.10;99.90
56374;DHT22;58212;47.034;7.376;2022-08-19T13:34:51;21.00;99.90
56374;DHT22;58212;47.034;7.376;2022-08-19T13:37:18;20.80;99.90
56374;DHT22;58212;47.034;7.376;2022-08-19T13:40:10;20.70;99.90
56374;DHT22;58212;47.034;7.376;2022-08-19T13:42:38;20.90;99.90
56374;DHT22;58212;47.034;7.376;2022-08-19T13:45:08;21.00;99.90
56374;DHT22;58212;47.034;7.376;2022-08-19T13:47:36;20.80;99.90
56374;DHT22;58212;47.034;7.376;2022-08-19T13:50:05;20.60;99.90
56374;DHT22;58212;47.034;7.376;2022-08-19T13:52:34;20.40;99.90
56374;DHT22;58212;47.034;7.376;2022-08-19T13:55:02;20.50;99.90
56374;DHT22;58212;47.034;7.376;2022-08-19T13:57:31;20.40;99.90
56374;DHT22;58212;47.034;7.376;2022-08-19T13:59:59;20.20;99.90
56374;DHT22;58212;47.034;7.376;2022-08-19T14:02:27;20.20;99.90
56374;DHT22;58212;47.034;7.376;2022-08-19T14:04:54;20.20;99.90
56374;DHT22;58212;47.034;7.376;2022-08-19T14:07:23;20.30;99.90
56374;DHT22;58212;47.034;7.376;2022-08-19T14:09:52;20.20;99.90
56374;DHT22;58212;47.034;7.376;2022-08-19T14:12:20;20.10;99.90
56374;DHT22;58212;47.034;7.376;2022-08-19T14:14:49;20.20;99.90
56374;DHT22;58212;47.034;7.376;2022-08-19T14:17:18;20.20;99.90
56374;DHT22;58212;47.034;7.376;2022-08-19T14:19:48;20.20;99.90
56374;DHT22;58212;47.034;7.376;2022-08-19T14:22:15;20.10;99.90
56374;DHT22;58212;47.034;7.376;2022-08-19T14:24:42;20.10;99.90
56374;DHT22;58212;47.034;7.376;2022-08-19T14:27:09;20.20;99.90
56374;DHT22;58212;47.034;7.376;2022-08-19T14:29:36;20.30;99.90
56374;DHT22;58212;47.034;7.376;2022-08-19T14:32:05;20.10;99.90
56374;DHT22;58212;47.034;7.376;2022-08-19T14:34:32;20.00;99.90
56374;DHT22;58212;47.034;7.376;2022-08-19T14:37:03;19.90;99.90
56374;DHT22;58212;47.034;7.376;2022-08-19T14:39:31;19.70;99.90
56374;DHT22;58212;47.034;7.376;2022-08-19T14:41:58;19.70;99.90
56374;DHT22;58212;47.034;7.376;2022-08-19T14:44:25;19.70;99.90
56374;DHT22;58212;47.034;7.376;2022-08-19T14:46:52;19.70;99.90
56374;DHT22;58212;47.034;7.376;2022-08-19T14:49:21;19.60;99.90
56374;DHT22;58212;47.034;7.376;2022-08-19T14:51:48;19.40;99.90
56374;DHT22;58212;47.034;7.376;2022-08-19T14:54:15;19.20;99.90
56374;DHT22;58212;47.034;7.376;2022-08-19T14:56:43;19.30;99.90
56374;DHT22;58212;47.034;7.376;2022-08-19T14:59:10;19.10;99.90
56374;DHT22;58212;47.034;7.376;2022-08-19T15:01:37;19.10;99.90
56374;DHT22;58212;47.034;7.376;2022-08-19T15:04:04;19.00;99.90
56374;DHT22;58212;47.034;7.376;2022-08-19T15:06:35;19.00;99.90
56374;DHT22;58212;47.034;7.376;2022-08-19T15:09:02;19.20;99.90
56374;DHT22;58212;47.034;7.376;2022-08-19T15:11:30;19.40;99.90
56374;DHT22;58212;47.034;7.376;2022-08-19T15:13:58;19.30;99.90
56374;DHT22;58212;47.034;7.376;2022-08-19T15:16:27;19.60;99.90
56374;DHT22;58212;47.034;7.376;2022-08-19T15:18:56;19.80;99.90
56374;DHT22;58212;47.034;7.376;2022-08-19T15:21:25;19.50;99.90
56374;DHT22;58212;47.034;7.376;2022-08-19T15:23:58;19.30;99.90
56374;DHT22;58212;47.034;7.376;2022-08-19T15:26:26;19.50;99.90
56374;DHT22;58212;47.034;7.376;2022-08-19T15:28:57;19.20;99.90
56374;DHT22;58212;47.034;7.376;2022-08-19T15:31:25;18.60;99.90
56374;DHT22;58212;47.034;7.376;2022-08-19T15:33:54;18.40;99.90
56374;DHT22;58212;47.034;7.376;2022-08-19T15:36:23;18.10;99.90
56374;DHT22;58212;47.034;7.376;2022-08-19T15:38:53;18.20;99.90
56374;DHT22;58212;47.034;7.376;2022-08-19T15:41:27;18.40;99.90
56374;DHT22;58212;47.034;7.376;2022-08-19T15:43:57;18.80;99.90
56374;DHT22;58212;47.034;7.376;2022-08-19T15:46:26;18.40;99.90